WZZ5GT LTAC-LHBP
Flight info
| Callsign | WZZ5GT |
|---|---|
| Flight time | 2h 2m |
| Altitude | 34000 |
| Route | DEREL UL602 MAKOL DCT BUDOP DCT KEZAL |
| Aircraft | A321/M-SDE1E2E3FGIJ1J4RWXY/LB1G1 |
Departure
| Time | 2026-05-07 05:14 |
|---|---|
| Airport | Esenboğa International Airport (LTAC) |
Arrival
| Time | 2026-05-07 07:17 |
|---|---|
| Airport | Budapest Liszt Ferenc International Airport (LHBP) |
| Time | Latitude | Longitude | Altitude | Speed | Heading |
|---|---|---|---|---|---|
| 2026-05-07 04:53 | 40.11656 | 32.99233 | 3113 ft | 0 kts | 155° |
| 2026-05-07 05:06 | 40.11658 | 32.99231 | 3113 ft | 3 kts | 156° |
| 2026-05-07 05:07 | 40.11683 | 32.99220 | 3113 ft | 4 kts | 170° |
| 2026-05-07 05:07 | 40.11709 | 32.99219 | 3113 ft | 4 kts | 198° |
| 2026-05-07 05:07 | 40.11728 | 32.99235 | 3113 ft | 2 kts | 245° |
| 2026-05-07 05:07 | 40.11728 | 32.99237 | 3113 ft | 0 kts | 246° |
| 2026-05-07 05:10 | 40.11728 | 32.99236 | 3113 ft | 1 kts | 246° |
| 2026-05-07 05:10 | 40.11722 | 32.99219 | 3113 ft | 3 kts | 246° |
| 2026-05-07 05:10 | 40.11709 | 32.99182 | 3113 ft | 6 kts | 244° |
| 2026-05-07 05:10 | 40.11684 | 32.99121 | 3113 ft | 8 kts | 239° |
| 2026-05-07 05:11 | 40.11649 | 32.99052 | 3113 ft | 10 kts | 236° |
| 2026-05-07 05:11 | 40.11625 | 32.98977 | 3113 ft | 9 kts | 268° |
| 2026-05-07 05:11 | 40.11653 | 32.98895 | 3113 ft | 11 kts | 306° |
| 2026-05-07 05:11 | 40.11702 | 32.98808 | 3112 ft | 13 kts | 306° |
| 2026-05-07 05:12 | 40.11757 | 32.98711 | 3113 ft | 14 kts | 306° |
| 2026-05-07 05:12 | 40.11815 | 32.98606 | 3113 ft | 15 kts | 306° |
| 2026-05-07 05:12 | 40.11870 | 32.98524 | 3113 ft | 12 kts | 325° |
| 2026-05-07 05:12 | 40.11950 | 32.98531 | 3113 ft | 13 kts | 32° |
| 2026-05-07 05:13 | 40.11983 | 32.98562 | 3113 ft | 0 kts | 36° |
| 2026-05-07 05:13 | 40.11985 | 32.98563 | 3114 ft | 2 kts | 36° |
| 2026-05-07 05:13 | 40.12062 | 32.98636 | 3114 ft | 39 kts | 36° |
| 2026-05-07 05:13 | 40.12473 | 32.99029 | 3119 ft | 105 kts | 36° |
| 2026-05-07 05:14 | 40.13221 | 32.99744 | 3127 ft | 160 kts | 36° |
| 2026-05-07 05:14 | 40.14237 | 33.00704 | 3274 ft | 192 kts | 36° |
| 2026-05-07 05:14 | 40.15321 | 33.01737 | 3994 ft | 193 kts | 38° |
| 2026-05-07 05:14 | 40.16375 | 33.02862 | 4666 ft | 202 kts | 39° |
| 2026-05-07 05:15 | 40.17515 | 33.04109 | 5019 ft | 225 kts | 39° |
| 2026-05-07 05:15 | 40.18781 | 33.05486 | 5343 ft | 246 kts | 39° |
| 2026-05-07 05:15 | 40.20129 | 33.06935 | 5865 ft | 254 kts | 38° |
| 2026-05-07 05:15 | 40.21663 | 33.08064 | 6549 ft | 256 kts | 9° |
| 2026-05-07 05:16 | 40.23440 | 33.07926 | 6955 ft | 267 kts | 335° |
| 2026-05-07 05:16 | 40.24908 | 33.06467 | 7425 ft | 273 kts | 308° |
| 2026-05-07 05:16 | 40.25981 | 33.04402 | 8073 ft | 277 kts | 300° |
| 2026-05-07 05:16 | 40.26943 | 33.02191 | 8759 ft | 281 kts | 299° |
| 2026-05-07 05:17 | 40.27946 | 32.99970 | 9450 ft | 285 kts | 301° |
| 2026-05-07 05:17 | 40.29029 | 32.97784 | 10138 ft | 288 kts | 304° |
| 2026-05-07 05:17 | 40.30220 | 32.95573 | 10397 ft | 308 kts | 306° |
| 2026-05-07 05:17 | 40.31550 | 32.93251 | 10524 ft | 330 kts | 308° |
| 2026-05-07 05:18 | 40.32992 | 32.90834 | 10850 ft | 343 kts | 309° |
| 2026-05-07 05:18 | 40.34489 | 32.88375 | 11469 ft | 346 kts | 309° |
| 2026-05-07 05:18 | 40.35968 | 32.85877 | 12023 ft | 350 kts | 307° |
| 2026-05-07 05:18 | 40.37405 | 32.83286 | 12148 ft | 351 kts | 306° |
| 2026-05-07 05:19 | 40.38804 | 32.80671 | 12178 ft | 351 kts | 305° |
| 2026-05-07 05:19 | 40.40192 | 32.78040 | 12213 ft | 353 kts | 305° |
| 2026-05-07 05:19 | 40.41597 | 32.75384 | 12840 ft | 355 kts | 305° |
| 2026-05-07 05:19 | 40.43015 | 32.72707 | 13502 ft | 358 kts | 306° |
| 2026-05-07 05:20 | 40.44447 | 32.70016 | 14105 ft | 361 kts | 306° |
| 2026-05-07 05:20 | 40.45888 | 32.67315 | 14674 ft | 364 kts | 306° |
| 2026-05-07 05:20 | 40.47346 | 32.64581 | 15297 ft | 365 kts | 306° |
| 2026-05-07 05:20 | 40.48807 | 32.61849 | 15901 ft | 367 kts | 306° |
| 2026-05-07 05:21 | 40.50286 | 32.59094 | 16470 ft | 370 kts | 306° |
| 2026-05-07 05:21 | 40.53263 | 32.53520 | 17663 ft | 374 kts | 306° |
| 2026-05-07 05:21 | 40.54762 | 32.50706 | 18260 ft | 377 kts | 307° |
| 2026-05-07 05:22 | 40.56269 | 32.47879 | 18798 ft | 379 kts | 307° |
| 2026-05-07 05:22 | 40.57783 | 32.45038 | 19310 ft | 380 kts | 307° |
| 2026-05-07 05:22 | 40.59298 | 32.42191 | 19852 ft | 381 kts | 307° |
| 2026-05-07 05:22 | 40.60819 | 32.39325 | 20400 ft | 382 kts | 307° |
| 2026-05-07 05:23 | 40.62340 | 32.36449 | 20931 ft | 384 kts | 307° |
| 2026-05-07 05:23 | 40.63869 | 32.33561 | 21468 ft | 385 kts | 307° |
| 2026-05-07 05:23 | 40.65405 | 32.30667 | 21980 ft | 387 kts | 307° |
| 2026-05-07 05:23 | 40.66949 | 32.27752 | 22486 ft | 388 kts | 307° |
| 2026-05-07 05:24 | 40.68494 | 32.24829 | 22958 ft | 390 kts | 307° |
| 2026-05-07 05:24 | 40.70026 | 32.21927 | 23408 ft | 392 kts | 307° |
| 2026-05-07 05:24 | 40.71584 | 32.18968 | 23822 ft | 394 kts | 307° |
| 2026-05-07 05:24 | 40.73130 | 32.15964 | 24170 ft | 397 kts | 306° |
| 2026-05-07 05:25 | 40.74672 | 32.12876 | 24548 ft | 399 kts | 306° |
| 2026-05-07 05:25 | 40.76166 | 32.09843 | 24901 ft | 401 kts | 305° |
| 2026-05-07 05:25 | 40.77706 | 32.06708 | 25266 ft | 403 kts | 305° |
| 2026-05-07 05:25 | 40.79211 | 32.03643 | 25614 ft | 405 kts | 305° |
| 2026-05-07 05:26 | 40.80746 | 32.00521 | 25972 ft | 406 kts | 306° |
| 2026-05-07 05:26 | 40.82294 | 31.97386 | 26278 ft | 408 kts | 305° |
| 2026-05-07 05:26 | 40.83848 | 31.94241 | 26605 ft | 410 kts | 305° |
| 2026-05-07 05:26 | 40.85417 | 31.91080 | 26956 ft | 412 kts | 305° |
| 2026-05-07 05:27 | 40.86991 | 31.87902 | 27303 ft | 414 kts | 305° |
| 2026-05-07 05:27 | 40.88569 | 31.84703 | 27615 ft | 416 kts | 305° |
| 2026-05-07 05:27 | 40.90152 | 31.81494 | 27942 ft | 418 kts | 305° |
| 2026-05-07 05:27 | 40.91742 | 31.78267 | 28228 ft | 420 kts | 305° |
| 2026-05-07 05:28 | 40.93339 | 31.75018 | 28526 ft | 422 kts | 305° |
| 2026-05-07 05:28 | 40.94933 | 31.71764 | 28885 ft | 422 kts | 305° |
| 2026-05-07 05:28 | 40.96534 | 31.68498 | 29250 ft | 424 kts | 305° |
| 2026-05-07 05:28 | 40.98138 | 31.65225 | 29539 ft | 425 kts | 305° |
| 2026-05-07 05:29 | 40.99753 | 31.61925 | 29778 ft | 428 kts | 305° |
| 2026-05-07 05:29 | 41.01380 | 31.58607 | 30068 ft | 431 kts | 305° |
| 2026-05-07 05:29 | 41.03014 | 31.55275 | 30322 ft | 432 kts | 305° |
| 2026-05-07 05:29 | 41.04647 | 31.51934 | 30687 ft | 431 kts | 305° |
| 2026-05-07 05:30 | 41.06268 | 31.48603 | 31075 ft | 429 kts | 305° |
| 2026-05-07 05:30 | 41.07872 | 31.45293 | 31521 ft | 426 kts | 305° |
| 2026-05-07 05:30 | 41.09467 | 31.41998 | 31908 ft | 424 kts | 306° |
| 2026-05-07 05:30 | 41.11058 | 31.38716 | 32270 ft | 422 kts | 306° |
| 2026-05-07 05:31 | 41.12646 | 31.35448 | 32628 ft | 421 kts | 306° |
| 2026-05-07 05:31 | 41.14228 | 31.32190 | 32983 ft | 420 kts | 306° |
| 2026-05-07 05:31 | 41.15809 | 31.28928 | 33331 ft | 419 kts | 306° |
| 2026-05-07 05:31 | 41.17380 | 31.25682 | 33661 ft | 418 kts | 306° |
| 2026-05-07 05:32 | 41.18947 | 31.22440 | 33999 ft | 417 kts | 306° |
| 2026-05-07 05:32 | 41.20511 | 31.19203 | 34122 ft | 415 kts | 306° |
| 2026-05-07 05:32 | 41.22062 | 31.15989 | 34143 ft | 412 kts | 306° |
| 2026-05-07 05:33 | 41.25144 | 31.09595 | 34144 ft | 410 kts | 306° |
| 2026-05-07 05:33 | 41.28213 | 31.03210 | 34142 ft | 410 kts | 306° |
| 2026-05-07 05:34 | 41.31253 | 30.96857 | 34146 ft | 409 kts | 306° |
| 2026-05-07 05:34 | 41.34313 | 30.90470 | 34141 ft | 409 kts | 306° |
| 2026-05-07 05:35 | 41.37368 | 30.84077 | 34144 ft | 410 kts | 306° |
| 2026-05-07 05:35 | 41.40418 | 30.77666 | 34150 ft | 410 kts | 306° |
| 2026-05-07 05:36 | 41.43470 | 30.71257 | 34143 ft | 410 kts | 306° |
| 2026-05-07 05:36 | 41.46539 | 30.64852 | 34151 ft | 410 kts | 306° |
| 2026-05-07 05:37 | 41.49613 | 30.58455 | 34165 ft | 410 kts | 306° |
| 2026-05-07 05:37 | 41.52686 | 30.52054 | 34160 ft | 410 kts | 306° |
| 2026-05-07 05:38 | 41.55756 | 30.45643 | 34143 ft | 410 kts | 306° |
| 2026-05-07 05:38 | 41.58813 | 30.39222 | 34152 ft | 410 kts | 306° |
| 2026-05-07 05:39 | 41.61863 | 30.32793 | 34158 ft | 410 kts | 306° |
| 2026-05-07 05:39 | 41.64916 | 30.26363 | 34154 ft | 410 kts | 306° |
| 2026-05-07 05:40 | 41.67943 | 30.19978 | 34159 ft | 409 kts | 306° |
| 2026-05-07 05:40 | 41.70997 | 30.13501 | 34163 ft | 408 kts | 306° |
| 2026-05-07 05:41 | 41.74027 | 30.07074 | 34166 ft | 408 kts | 306° |
| 2026-05-07 05:41 | 41.77055 | 30.00649 | 34143 ft | 408 kts | 306° |
| 2026-05-07 05:42 | 41.80072 | 29.94219 | 34152 ft | 407 kts | 306° |
| 2026-05-07 05:42 | 41.83055 | 29.87847 | 34158 ft | 406 kts | 306° |
| 2026-05-07 05:43 | 41.86049 | 29.81439 | 34170 ft | 405 kts | 306° |
| 2026-05-07 05:43 | 41.89034 | 29.75036 | 34146 ft | 404 kts | 306° |
| 2026-05-07 05:44 | 41.91510 | 29.69719 | 34169 ft | 404 kts | 306° |
| 2026-05-07 05:44 | 41.94488 | 29.63318 | 34170 ft | 404 kts | 306° |
| 2026-05-07 05:45 | 41.97457 | 29.56909 | 34165 ft | 404 kts | 305° |
| 2026-05-07 05:45 | 42.00421 | 29.50497 | 34167 ft | 404 kts | 305° |
| 2026-05-07 05:46 | 42.03384 | 29.44080 | 34159 ft | 404 kts | 305° |
| 2026-05-07 05:46 | 42.06347 | 29.37666 | 34160 ft | 404 kts | 305° |
| 2026-05-07 05:47 | 42.09301 | 29.31239 | 34161 ft | 404 kts | 305° |
| 2026-05-07 05:47 | 42.12250 | 29.24809 | 34161 ft | 403 kts | 305° |
| 2026-05-07 05:48 | 42.15195 | 29.18384 | 34137 ft | 404 kts | 304° |
| 2026-05-07 05:48 | 42.18426 | 29.12241 | 34141 ft | 400 kts | 314° |
| 2026-05-07 05:49 | 42.22170 | 29.06669 | 34141 ft | 401 kts | 314° |
| 2026-05-07 05:49 | 42.25918 | 29.01098 | 34144 ft | 401 kts | 314° |
| 2026-05-07 05:50 | 42.29668 | 28.95499 | 34131 ft | 402 kts | 313° |
| 2026-05-07 05:50 | 42.33411 | 28.89875 | 34136 ft | 403 kts | 313° |
| 2026-05-07 05:51 | 42.37164 | 28.84238 | 34139 ft | 404 kts | 313° |
| 2026-05-07 05:51 | 42.40922 | 28.78590 | 34159 ft | 404 kts | 314° |
| 2026-05-07 05:52 | 42.44678 | 28.72926 | 34160 ft | 405 kts | 314° |
| 2026-05-07 05:52 | 42.48445 | 28.67252 | 34163 ft | 404 kts | 314° |
| 2026-05-07 05:53 | 42.52200 | 28.61587 | 34166 ft | 404 kts | 314° |
| 2026-05-07 05:53 | 42.55952 | 28.55909 | 34165 ft | 404 kts | 313° |
| 2026-05-07 05:54 | 42.59700 | 28.50217 | 34147 ft | 405 kts | 313° |
| 2026-05-07 05:54 | 42.63447 | 28.44505 | 34152 ft | 406 kts | 313° |
| 2026-05-07 05:55 | 42.67208 | 28.38777 | 34156 ft | 406 kts | 313° |
| 2026-05-07 05:55 | 42.70973 | 28.33040 | 34160 ft | 407 kts | 313° |
| 2026-05-07 05:56 | 42.74734 | 28.27295 | 34158 ft | 407 kts | 312° |
| 2026-05-07 05:56 | 42.78488 | 28.21526 | 34159 ft | 407 kts | 312° |
| 2026-05-07 05:57 | 42.82245 | 28.15746 | 34166 ft | 408 kts | 312° |
| 2026-05-07 05:57 | 42.86003 | 28.09958 | 34164 ft | 408 kts | 312° |
| 2026-05-07 05:58 | 42.89734 | 28.04216 | 34143 ft | 408 kts | 312° |
| 2026-05-07 05:58 | 42.93494 | 27.98411 | 34139 ft | 408 kts | 312° |
| 2026-05-07 05:59 | 42.97254 | 27.92582 | 34137 ft | 409 kts | 312° |
| 2026-05-07 05:59 | 43.01014 | 27.86745 | 34138 ft | 410 kts | 312° |
| 2026-05-07 06:00 | 43.04785 | 27.80895 | 34129 ft | 411 kts | 312° |
| 2026-05-07 06:00 | 43.08558 | 27.75019 | 34142 ft | 411 kts | 312° |
| 2026-05-07 06:01 | 43.12335 | 27.69123 | 34148 ft | 412 kts | 311° |
| 2026-05-07 06:01 | 43.16110 | 27.63216 | 34152 ft | 412 kts | 311° |
| 2026-05-07 06:02 | 43.19880 | 27.57303 | 34143 ft | 412 kts | 311° |
| 2026-05-07 06:02 | 43.23653 | 27.51372 | 34148 ft | 412 kts | 311° |
| 2026-05-07 06:03 | 43.27424 | 27.45445 | 34147 ft | 412 kts | 311° |
| 2026-05-07 06:03 | 43.31198 | 27.39504 | 34148 ft | 413 kts | 311° |
| 2026-05-07 06:04 | 43.34958 | 27.33555 | 34135 ft | 413 kts | 311° |
| 2026-05-07 06:04 | 43.38717 | 27.27601 | 34150 ft | 411 kts | 311° |
| 2026-05-07 06:05 | 43.42457 | 27.21665 | 34149 ft | 410 kts | 311° |
| 2026-05-07 06:05 | 43.46189 | 27.15728 | 34146 ft | 410 kts | 311° |
| 2026-05-07 06:06 | 43.49913 | 27.09796 | 34148 ft | 409 kts | 311° |
| 2026-05-07 06:06 | 43.53630 | 27.03859 | 34145 ft | 408 kts | 311° |
| 2026-05-07 06:07 | 43.57331 | 26.97940 | 34132 ft | 407 kts | 311° |
| 2026-05-07 06:07 | 43.61024 | 26.92028 | 34128 ft | 407 kts | 311° |
| 2026-05-07 06:08 | 43.64712 | 26.86114 | 34120 ft | 406 kts | 311° |
| 2026-05-07 06:08 | 43.68390 | 26.80192 | 34121 ft | 406 kts | 311° |
| 2026-05-07 06:09 | 43.72057 | 26.74260 | 34108 ft | 406 kts | 311° |
| 2026-05-07 06:09 | 43.75727 | 26.68334 | 34116 ft | 406 kts | 311° |
| 2026-05-07 06:10 | 43.79397 | 26.62392 | 34112 ft | 406 kts | 310° |
| 2026-05-07 06:10 | 43.83057 | 26.56445 | 34101 ft | 406 kts | 310° |
| 2026-05-07 06:11 | 43.86720 | 26.50487 | 34097 ft | 406 kts | 310° |
| 2026-05-07 06:11 | 43.90385 | 26.44517 | 34100 ft | 407 kts | 310° |
| 2026-05-07 06:12 | 43.94047 | 26.38531 | 34099 ft | 407 kts | 310° |
| 2026-05-07 06:12 | 43.97708 | 26.32540 | 34100 ft | 407 kts | 310° |
| 2026-05-07 06:13 | 44.01367 | 26.26546 | 34098 ft | 407 kts | 310° |
| 2026-05-07 06:13 | 44.05023 | 26.20537 | 34102 ft | 407 kts | 310° |
| 2026-05-07 06:14 | 44.08676 | 26.14520 | 34099 ft | 407 kts | 310° |
| 2026-05-07 06:14 | 44.12323 | 26.08491 | 34105 ft | 407 kts | 310° |
| 2026-05-07 06:15 | 44.15966 | 26.02465 | 34094 ft | 407 kts | 310° |
| 2026-05-07 06:15 | 44.19614 | 25.96428 | 34101 ft | 407 kts | 310° |
| 2026-05-07 06:16 | 44.23235 | 25.90420 | 34096 ft | 408 kts | 310° |
| 2026-05-07 06:16 | 44.26879 | 25.84356 | 34096 ft | 408 kts | 310° |
| 2026-05-07 06:17 | 44.30513 | 25.78280 | 34104 ft | 408 kts | 309° |
| 2026-05-07 06:17 | 44.34149 | 25.72196 | 34098 ft | 408 kts | 309° |
| 2026-05-07 06:18 | 44.37787 | 25.66103 | 34096 ft | 408 kts | 309° |
| 2026-05-07 06:18 | 44.41422 | 25.60011 | 34101 ft | 408 kts | 309° |
| 2026-05-07 06:19 | 44.45052 | 25.53903 | 34101 ft | 408 kts | 309° |
| 2026-05-07 06:19 | 44.48685 | 25.47780 | 34100 ft | 408 kts | 309° |
| 2026-05-07 06:20 | 44.52311 | 25.41658 | 34098 ft | 408 kts | 309° |
| 2026-05-07 06:20 | 44.55936 | 25.35527 | 34098 ft | 408 kts | 309° |
| 2026-05-07 06:21 | 44.59555 | 25.29384 | 34100 ft | 408 kts | 309° |
| 2026-05-07 06:21 | 44.63173 | 25.23240 | 34100 ft | 408 kts | 309° |
| 2026-05-07 06:22 | 44.66774 | 25.17106 | 34098 ft | 407 kts | 308° |
| 2026-05-07 06:22 | 44.72166 | 25.07874 | 34100 ft | 407 kts | 308° |
| 2026-05-07 06:23 | 44.75751 | 25.01726 | 34093 ft | 406 kts | 308° |
| 2026-05-07 06:23 | 44.79340 | 24.95582 | 34103 ft | 406 kts | 308° |
| 2026-05-07 06:24 | 44.82918 | 24.89432 | 34094 ft | 406 kts | 308° |
| 2026-05-07 06:24 | 44.86494 | 24.83259 | 34093 ft | 407 kts | 308° |
| 2026-05-07 06:25 | 44.90067 | 24.77076 | 34095 ft | 407 kts | 308° |
| 2026-05-07 06:25 | 44.93648 | 24.70889 | 34096 ft | 407 kts | 308° |
| 2026-05-07 06:26 | 44.97215 | 24.64697 | 34091 ft | 406 kts | 307° |
| 2026-05-07 06:26 | 45.00745 | 24.58554 | 34090 ft | 405 kts | 307° |
| 2026-05-07 06:27 | 45.04298 | 24.52365 | 34087 ft | 405 kts | 307° |
| 2026-05-07 06:27 | 45.07842 | 24.46174 | 34085 ft | 405 kts | 307° |
| 2026-05-07 06:28 | 45.11387 | 24.39963 | 34086 ft | 405 kts | 307° |
| 2026-05-07 06:28 | 45.14349 | 24.34764 | 34103 ft | 405 kts | 307° |
| 2026-05-07 06:29 | 45.17892 | 24.28539 | 34092 ft | 406 kts | 307° |
| 2026-05-07 06:29 | 45.21408 | 24.22349 | 34091 ft | 406 kts | 307° |
| 2026-05-07 06:30 | 45.24943 | 24.16106 | 34090 ft | 406 kts | 306° |
| 2026-05-07 06:30 | 45.28476 | 24.09847 | 34088 ft | 406 kts | 306° |
| 2026-05-07 06:31 | 45.32008 | 24.03586 | 34088 ft | 407 kts | 306° |
| 2026-05-07 06:31 | 45.35542 | 23.97307 | 34088 ft | 407 kts | 306° |
| 2026-05-07 06:32 | 45.39069 | 23.91023 | 34091 ft | 407 kts | 306° |
| 2026-05-07 06:32 | 45.42599 | 23.84716 | 34078 ft | 407 kts | 306° |
| 2026-05-07 06:33 | 45.46123 | 23.78401 | 34078 ft | 408 kts | 306° |
| 2026-05-07 06:33 | 45.49656 | 23.72080 | 34088 ft | 408 kts | 306° |
| 2026-05-07 06:34 | 45.53182 | 23.65746 | 34081 ft | 408 kts | 306° |
| 2026-05-07 06:34 | 45.56704 | 23.59393 | 34072 ft | 408 kts | 306° |
| 2026-05-07 06:35 | 45.60224 | 23.53030 | 34064 ft | 408 kts | 306° |
| 2026-05-07 06:35 | 45.63747 | 23.46663 | 34062 ft | 408 kts | 306° |
| 2026-05-07 06:36 | 45.67261 | 23.40292 | 34055 ft | 409 kts | 306° |
| 2026-05-07 06:36 | 45.70772 | 23.33896 | 34042 ft | 409 kts | 306° |
| 2026-05-07 06:37 | 45.74289 | 23.27491 | 34037 ft | 409 kts | 306° |
| 2026-05-07 06:37 | 45.77805 | 23.21070 | 34034 ft | 410 kts | 305° |
| 2026-05-07 06:38 | 45.81316 | 23.14640 | 34036 ft | 410 kts | 305° |
| 2026-05-07 06:38 | 45.84810 | 23.08239 | 34039 ft | 410 kts | 306° |
| 2026-05-07 06:39 | 45.88330 | 23.01779 | 34032 ft | 412 kts | 305° |
| 2026-05-07 06:39 | 45.91851 | 22.95287 | 34030 ft | 412 kts | 305° |
| 2026-05-07 06:40 | 45.95369 | 22.88785 | 34030 ft | 413 kts | 305° |
| 2026-05-07 06:40 | 45.98894 | 22.82267 | 34030 ft | 413 kts | 305° |
| 2026-05-07 06:41 | 46.02410 | 22.75744 | 34040 ft | 413 kts | 304° |
| 2026-05-07 06:41 | 46.05925 | 22.69203 | 34041 ft | 413 kts | 304° |
| 2026-05-07 06:42 | 46.09436 | 22.62664 | 34042 ft | 413 kts | 304° |
| 2026-05-07 06:42 | 46.12942 | 22.56114 | 34038 ft | 413 kts | 304° |
| 2026-05-07 06:43 | 46.16442 | 22.49556 | 34028 ft | 412 kts | 304° |
| 2026-05-07 06:43 | 46.19937 | 22.42991 | 34042 ft | 413 kts | 304° |
| 2026-05-07 06:44 | 46.23430 | 22.36410 | 34012 ft | 413 kts | 304° |
| 2026-05-07 06:44 | 46.26919 | 22.29821 | 34013 ft | 413 kts | 304° |
| 2026-05-07 06:45 | 46.30404 | 22.23212 | 34017 ft | 413 kts | 304° |
| 2026-05-07 06:45 | 46.33895 | 22.16600 | 34026 ft | 414 kts | 304° |
| 2026-05-07 06:46 | 46.37391 | 22.09980 | 34018 ft | 413 kts | 303° |
| 2026-05-07 06:46 | 46.40871 | 22.03362 | 34012 ft | 413 kts | 303° |
| 2026-05-07 06:47 | 46.44347 | 21.96724 | 34012 ft | 413 kts | 303° |
| 2026-05-07 06:47 | 46.47818 | 21.90085 | 34012 ft | 413 kts | 303° |
| 2026-05-07 06:48 | 46.51281 | 21.83442 | 34023 ft | 413 kts | 302° |
| 2026-05-07 06:48 | 46.54747 | 21.76782 | 34020 ft | 413 kts | 303° |
| 2026-05-07 06:49 | 46.58211 | 21.70102 | 34007 ft | 414 kts | 303° |
| 2026-05-07 06:49 | 46.61677 | 21.63398 | 33999 ft | 415 kts | 303° |
| 2026-05-07 06:50 | 46.65144 | 21.56688 | 33991 ft | 415 kts | 303° |
| 2026-05-07 06:50 | 46.68587 | 21.49947 | 34005 ft | 414 kts | 299° |
| 2026-05-07 06:51 | 46.71375 | 21.42734 | 33997 ft | 411 kts | 295° |
| 2026-05-07 06:51 | 46.74111 | 21.35429 | 33996 ft | 411 kts | 295° |
| 2026-05-07 06:52 | 46.76851 | 21.28105 | 33982 ft | 411 kts | 295° |
| 2026-05-07 06:52 | 46.78217 | 21.24451 | 33707 ft | 409 kts | 295° |
| 2026-05-07 06:52 | 46.79579 | 21.20821 | 33454 ft | 407 kts | 294° |
| 2026-05-07 06:53 | 46.80933 | 21.17202 | 33181 ft | 406 kts | 294° |
| 2026-05-07 06:53 | 46.82278 | 21.13600 | 32911 ft | 405 kts | 294° |
| 2026-05-07 06:53 | 46.83621 | 21.09992 | 32652 ft | 404 kts | 294° |
| 2026-05-07 06:53 | 46.84957 | 21.06390 | 32381 ft | 403 kts | 294° |
| 2026-05-07 06:54 | 46.86289 | 21.02793 | 32129 ft | 402 kts | 294° |
| 2026-05-07 06:54 | 46.87617 | 20.99201 | 31866 ft | 402 kts | 294° |
| 2026-05-07 06:54 | 46.88944 | 20.95608 | 31613 ft | 401 kts | 294° |
| 2026-05-07 06:54 | 46.90266 | 20.92028 | 31357 ft | 400 kts | 294° |
| 2026-05-07 06:55 | 46.91587 | 20.88442 | 31100 ft | 400 kts | 294° |
| 2026-05-07 06:55 | 46.92907 | 20.84862 | 30867 ft | 401 kts | 294° |
| 2026-05-07 06:55 | 46.94228 | 20.81273 | 30622 ft | 401 kts | 294° |
| 2026-05-07 06:55 | 46.95550 | 20.77668 | 30378 ft | 401 kts | 294° |
| 2026-05-07 06:56 | 46.96870 | 20.74069 | 30136 ft | 401 kts | 294° |
| 2026-05-07 06:56 | 46.98190 | 20.70474 | 29872 ft | 401 kts | 294° |
| 2026-05-07 06:56 | 46.99508 | 20.66879 | 29583 ft | 400 kts | 294° |
| 2026-05-07 06:56 | 47.00815 | 20.63315 | 29247 ft | 395 kts | 294° |
| 2026-05-07 06:57 | 47.02107 | 20.59783 | 28664 ft | 394 kts | 294° |
| 2026-05-07 06:57 | 47.03405 | 20.56216 | 27840 ft | 398 kts | 294° |
| 2026-05-07 06:57 | 47.04701 | 20.52660 | 26936 ft | 392 kts | 294° |
| 2026-05-07 06:57 | 47.05976 | 20.49160 | 26054 ft | 387 kts | 294° |
| 2026-05-07 06:58 | 47.07235 | 20.45693 | 25206 ft | 384 kts | 294° |
| 2026-05-07 06:58 | 47.08488 | 20.42236 | 24882 ft | 384 kts | 294° |
| 2026-05-07 06:58 | 47.09737 | 20.38779 | 24642 ft | 384 kts | 294° |
| 2026-05-07 06:58 | 47.10988 | 20.35316 | 24437 ft | 384 kts | 294° |
| 2026-05-07 06:59 | 47.12233 | 20.31863 | 24204 ft | 383 kts | 294° |
| 2026-05-07 06:59 | 47.13473 | 20.28412 | 23975 ft | 380 kts | 294° |
| 2026-05-07 06:59 | 47.14700 | 20.24998 | 23600 ft | 377 kts | 294° |
| 2026-05-07 06:59 | 47.15903 | 20.21596 | 23146 ft | 373 kts | 292° |
| 2026-05-07 07:00 | 47.17017 | 20.18184 | 22738 ft | 369 kts | 290° |
| 2026-05-07 07:00 | 47.18071 | 20.14763 | 22302 ft | 365 kts | 289° |
| 2026-05-07 07:00 | 47.19092 | 20.11361 | 21880 ft | 362 kts | 289° |
| 2026-05-07 07:00 | 47.20100 | 20.07985 | 21455 ft | 359 kts | 289° |
| 2026-05-07 07:01 | 47.21107 | 20.04636 | 21032 ft | 357 kts | 290° |
| 2026-05-07 07:01 | 47.22120 | 20.01290 | 20532 ft | 361 kts | 290° |
| 2026-05-07 07:01 | 47.23147 | 19.97921 | 20029 ft | 361 kts | 290° |
| 2026-05-07 07:01 | 47.24171 | 19.94583 | 19425 ft | 364 kts | 291° |
| 2026-05-07 07:02 | 47.25219 | 19.91179 | 18827 ft | 367 kts | 291° |
| 2026-05-07 07:02 | 47.26277 | 19.87740 | 18234 ft | 370 kts | 291° |
| 2026-05-07 07:02 | 47.27342 | 19.84278 | 17561 ft | 372 kts | 291° |
| 2026-05-07 07:02 | 47.28424 | 19.80756 | 16904 ft | 371 kts | 291° |
| 2026-05-07 07:03 | 47.29451 | 19.77411 | 16253 ft | 355 kts | 291° |
| 2026-05-07 07:03 | 47.30442 | 19.74180 | 15726 ft | 338 kts | 291° |
| 2026-05-07 07:03 | 47.31394 | 19.71054 | 15482 ft | 331 kts | 291° |
| 2026-05-07 07:03 | 47.32329 | 19.67970 | 15235 ft | 328 kts | 291° |
| 2026-05-07 07:04 | 47.33259 | 19.64907 | 14995 ft | 326 kts | 291° |
| 2026-05-07 07:04 | 47.34183 | 19.61864 | 14750 ft | 325 kts | 291° |
| 2026-05-07 07:04 | 47.35301 | 19.58971 | 14507 ft | 326 kts | 303° |
| 2026-05-07 07:04 | 47.36779 | 19.56429 | 14273 ft | 327 kts | 309° |
| 2026-05-07 07:05 | 47.38320 | 19.53966 | 14036 ft | 326 kts | 309° |
| 2026-05-07 07:05 | 47.39852 | 19.51513 | 13738 ft | 325 kts | 309° |
| 2026-05-07 07:05 | 47.41382 | 19.49060 | 13204 ft | 324 kts | 308° |
| 2026-05-07 07:05 | 47.42882 | 19.46652 | 12669 ft | 314 kts | 308° |
| 2026-05-07 07:06 | 47.44355 | 19.44281 | 12161 ft | 312 kts | 308° |
| 2026-05-07 07:06 | 47.45816 | 19.41924 | 11678 ft | 310 kts | 308° |
| 2026-05-07 07:06 | 47.47264 | 19.39586 | 11441 ft | 308 kts | 308° |
| 2026-05-07 07:06 | 47.48714 | 19.37248 | 11186 ft | 307 kts | 308° |
| 2026-05-07 07:07 | 47.50150 | 19.34931 | 10931 ft | 305 kts | 308° |
| 2026-05-07 07:07 | 47.51575 | 19.32627 | 10715 ft | 301 kts | 308° |
| 2026-05-07 07:07 | 47.52976 | 19.30361 | 10423 ft | 296 kts | 308° |
| 2026-05-07 07:07 | 47.54361 | 19.28119 | 10113 ft | 293 kts | 308° |
| 2026-05-07 07:08 | 47.55723 | 19.25915 | 9868 ft | 287 kts | 308° |
| 2026-05-07 07:08 | 47.57059 | 19.23750 | 9637 ft | 286 kts | 308° |
| 2026-05-07 07:08 | 47.58398 | 19.21576 | 9227 ft | 286 kts | 308° |
| 2026-05-07 07:08 | 47.59739 | 19.19395 | 8695 ft | 284 kts | 308° |
| 2026-05-07 07:09 | 47.61047 | 19.17268 | 8185 ft | 279 kts | 308° |
| 2026-05-07 07:09 | 47.62348 | 19.15152 | 7685 ft | 276 kts | 308° |
| 2026-05-07 07:09 | 47.63639 | 19.13055 | 7135 ft | 274 kts | 308° |
| 2026-05-07 07:09 | 47.64907 | 19.10994 | 6527 ft | 268 kts | 308° |
| 2026-05-07 07:10 | 47.65884 | 19.08819 | 6265 ft | 241 kts | 285° |
| 2026-05-07 07:10 | 47.66104 | 19.06405 | 6129 ft | 235 kts | 261° |
| 2026-05-07 07:10 | 47.65585 | 19.04153 | 6001 ft | 232 kts | 237° |
| 2026-05-07 07:10 | 47.64472 | 19.02359 | 5434 ft | 241 kts | 222° |
| 2026-05-07 07:11 | 47.63227 | 19.00715 | 5191 ft | 237 kts | 223° |
| 2026-05-07 07:11 | 47.62008 | 18.99141 | 5030 ft | 228 kts | 217° |
| 2026-05-07 07:11 | 47.60528 | 18.98390 | 4749 ft | 229 kts | 182° |
| 2026-05-07 07:11 | 47.59038 | 18.99119 | 4517 ft | 230 kts | 146° |
| 2026-05-07 07:12 | 47.57932 | 19.00767 | 4253 ft | 221 kts | 135° |
| 2026-05-07 07:12 | 47.56941 | 19.02432 | 3950 ft | 210 kts | 135° |
| 2026-05-07 07:12 | 47.56029 | 19.03939 | 3710 ft | 184 kts | 135° |
| 2026-05-07 07:12 | 47.55208 | 19.05282 | 3453 ft | 167 kts | 136° |
| 2026-05-07 07:13 | 47.54433 | 19.06542 | 3232 ft | 163 kts | 135° |
| 2026-05-07 07:13 | 47.53679 | 19.07769 | 3025 ft | 160 kts | 136° |
| 2026-05-07 07:13 | 47.52942 | 19.08967 | 2813 ft | 158 kts | 136° |
| 2026-05-07 07:13 | 47.52207 | 19.10162 | 2600 ft | 156 kts | 136° |
| 2026-05-07 07:14 | 47.51479 | 19.11346 | 2404 ft | 155 kts | 135° |
| 2026-05-07 07:14 | 47.50758 | 19.12519 | 2176 ft | 154 kts | 137° |
| 2026-05-07 07:14 | 47.50036 | 19.13692 | 1984 ft | 154 kts | 137° |
| 2026-05-07 07:14 | 47.49316 | 19.14861 | 1780 ft | 153 kts | 137° |
| 2026-05-07 07:15 | 47.48603 | 19.16020 | 1577 ft | 151 kts | 137° |
| 2026-05-07 07:15 | 47.47906 | 19.17152 | 1370 ft | 149 kts | 137° |
| 2026-05-07 07:15 | 47.47199 | 19.18297 | 1168 ft | 150 kts | 136° |
| 2026-05-07 07:15 | 47.46738 | 19.19045 | 1044 ft | 149 kts | 136° |
| 2026-05-07 07:16 | 47.46047 | 19.20166 | 839 ft | 146 kts | 135° |
| 2026-05-07 07:16 | 47.45363 | 19.21273 | 647 ft | 144 kts | 135° |
| 2026-05-07 07:16 | 47.44700 | 19.22348 | 468 ft | 144 kts | 137° |
| 2026-05-07 07:16 | 47.44111 | 19.23290 | 454 ft | 102 kts | 131° |
| 2026-05-07 07:17 | 47.43756 | 19.23875 | 455 ft | 53 kts | 131° |
| 2026-05-07 07:17 | 47.43627 | 19.24090 | 453 ft | 4 kts | 133° |
| 2026-05-07 07:17 | 47.43584 | 19.24160 | 452 ft | 15 kts | 132° |
| 2026-05-07 07:17 | 47.43511 | 19.24278 | 451 ft | 17 kts | 132° |
| 2026-05-07 07:18 | 47.43432 | 19.24406 | 451 ft | 17 kts | 132° |
| 2026-05-07 07:18 | 47.43352 | 19.24536 | 452 ft | 17 kts | 132° |
| 2026-05-07 07:18 | 47.43271 | 19.24664 | 455 ft | 17 kts | 133° |
| 2026-05-07 07:18 | 47.43192 | 19.24790 | 456 ft | 17 kts | 131° |
| 2026-05-07 07:19 | 47.43114 | 19.24923 | 457 ft | 17 kts | 127° |
| 2026-05-07 07:19 | 47.43119 | 19.25083 | 456 ft | 17 kts | 56° |
| 2026-05-07 07:19 | 47.43209 | 19.25208 | 457 ft | 18 kts | 43° |
| 2026-05-07 07:19 | 47.43299 | 19.25327 | 457 ft | 18 kts | 42° |
| 2026-05-07 07:20 | 47.43392 | 19.25453 | 457 ft | 19 kts | 42° |
| 2026-05-07 07:20 | 47.43488 | 19.25580 | 457 ft | 16 kts | 42° |
| 2026-05-07 07:20 | 47.43546 | 19.25691 | 457 ft | 13 kts | 89° |
| 2026-05-07 07:20 | 47.43507 | 19.25774 | 457 ft | 9 kts | 133° |
| 2026-05-07 07:21 | 47.43471 | 19.25855 | 457 ft | 10 kts | 128° |
| 2026-05-07 07:21 | 47.43428 | 19.25917 | 457 ft | 7 kts | 155° |
| 2026-05-07 07:21 | 47.43400 | 19.25892 | 455 ft | 2 kts | 227° |
| 2026-05-07 07:21 | 47.43385 | 19.25870 | 457 ft | 4 kts | 223° |
| 2026-05-07 07:22 | 47.43375 | 19.25856 | 457 ft | 1 kts | 222° |
| 2026-05-07 07:22 | 47.43369 | 19.25848 | 456 ft | 1 kts | 222° |
| 2026-05-07 07:22 | 47.43366 | 19.25844 | 456 ft | 0 kts | 222° |
| 2026-05-07 07:22 | 47.43363 | 19.25840 | 457 ft | 0 kts | 222° |